createdAt,value
2018-01-12T00:01:44.522Z,1.80
2018-01-12T00:04:12.184Z,1.80
2018-01-12T00:06:39.866Z,1.90
2018-01-12T00:09:07.573Z,2.00
2018-01-12T00:11:35.229Z,1.90
2018-01-12T00:14:02.897Z,1.90
2018-01-12T00:16:30.582Z,1.90
2018-01-12T00:18:58.211Z,1.90
2018-01-12T00:21:26.859Z,1.90
2018-01-12T00:23:54.546Z,1.90
2018-01-12T00:26:22.218Z,1.80
2018-01-12T00:28:50.530Z,1.90
2018-01-12T00:31:19.826Z,1.80
2018-01-12T00:33:48.196Z,1.80
2018-01-12T00:36:17.489Z,1.90
2018-01-12T00:38:45.205Z,1.80
2018-01-12T00:41:12.926Z,1.90
2018-01-12T00:43:41.438Z,1.90
2018-01-12T00:46:09.161Z,1.80
2018-01-12T00:48:36.900Z,1.90
2018-01-12T00:51:04.620Z,1.80
2018-01-12T00:53:32.357Z,1.80
2018-01-12T00:56:00.795Z,1.90
2018-01-12T00:58:28.534Z,1.90
2018-01-12T01:00:56.206Z,1.90
2018-01-12T01:03:23.876Z,1.90
2018-01-12T01:05:52.319Z,1.90
2018-01-12T01:08:20.000Z,1.90
2018-01-12T01:10:47.636Z,1.90
2018-01-12T01:13:16.073Z,1.90
2018-01-12T01:15:43.776Z,1.90
2018-01-12T01:18:11.426Z,1.90
2018-01-12T01:20:39.856Z,1.90
2018-01-12T01:23:07.533Z,1.90
2018-01-12T01:25:35.186Z,1.90
2018-01-12T01:28:02.850Z,1.90
2018-01-12T01:30:30.526Z,2.00
2018-01-12T01:32:58.169Z,2.00
2018-01-12T01:35:25.841Z,2.00
2018-01-12T01:37:53.536Z,2.00
2018-01-12T01:40:21.185Z,2.10
2018-01-12T01:42:49.639Z,2.10
2018-01-12T01:45:17.307Z,2.10
2018-01-12T01:47:44.960Z,2.10
2018-01-12T01:50:12.646Z,2.10
2018-01-12T01:52:41.080Z,2.00
2018-01-12T01:55:08.754Z,2.00
2018-01-12T01:57:36.431Z,1.90
2018-01-12T02:00:04.128Z,1.90
2018-01-12T02:02:31.764Z,1.90
2018-01-12T02:05:00.211Z,1.90
2018-01-12T02:07:27.888Z,1.90
2018-01-12T02:09:55.528Z,1.90
2018-01-12T02:12:23.192Z,1.90
2018-01-12T02:14:50.868Z,1.90
2018-01-12T02:17:18.549Z,1.90
2018-01-12T02:19:47.008Z,1.90
2018-01-12T02:22:14.706Z,1.90
2018-01-12T02:24:42.374Z,1.90
2018-01-12T02:27:10.039Z,1.80
2018-01-12T02:29:37.710Z,1.80
2018-01-12T02:32:05.351Z,1.80
2018-01-12T02:34:33.702Z,1.80
2018-01-12T02:37:02.136Z,1.80
2018-01-12T02:39:29.805Z,1.80
2018-01-12T02:41:58.245Z,1.80
2018-01-12T02:44:25.936Z,1.70
2018-01-12T02:46:53.585Z,1.80
2018-01-12T02:49:21.260Z,1.80
2018-01-12T02:51:48.946Z,1.80
2018-01-12T02:54:16.603Z,1.80
2018-01-12T02:56:44.284Z,1.90
2018-01-12T02:59:12.762Z,1.90
2018-01-12T03:01:41.179Z,1.90
2018-01-12T03:04:09.460Z,1.80
2018-01-12T03:06:37.156Z,1.80
2018-01-12T03:09:04.916Z,1.80
2018-01-12T03:11:32.581Z,1.80
2018-01-12T03:14:00.260Z,1.90
2018-01-12T03:16:28.697Z,1.90
2018-01-12T03:18:56.401Z,1.90
2018-01-12T03:21:24.854Z,1.90
2018-01-12T03:23:52.521Z,1.90
2018-01-12T03:26:20.230Z,1.90
2018-01-12T03:28:47.897Z,1.90
2018-01-12T03:31:15.537Z,1.90
2018-01-12T03:33:43.220Z,1.90
2018-01-12T03:36:10.923Z,2.00
2018-01-12T03:38:38.578Z,2.00
2018-01-12T03:41:06.307Z,2.00
2018-01-12T03:43:33.986Z,2.00
2018-01-12T03:46:01.636Z,2.10
2018-01-12T03:48:30.189Z,2.10
2018-01-12T03:50:57.895Z,2.10
2018-01-12T03:53:25.519Z,2.10
2018-01-12T03:55:53.196Z,2.10
2018-01-12T03:58:20.889Z,2.10
2018-01-12T04:00:48.533Z,2.10
2018-01-12T04:03:16.593Z,2.00
2018-01-12T04:05:44.344Z,2.10
2018-01-12T04:08:11.992Z,2.10
2018-01-12T04:10:39.743Z,2.10
2018-01-12T04:13:07.416Z,2.10
2018-01-12T04:15:35.068Z,2.10
2018-01-12T04:18:02.747Z,2.10
2018-01-12T04:20:30.425Z,2.10
2018-01-12T04:22:58.086Z,2.10
2018-01-12T04:25:25.751Z,2.10
2018-01-12T04:27:53.424Z,2.10
2018-01-12T04:30:21.086Z,2.10
2018-01-12T04:32:48.805Z,2.10
2018-01-12T04:35:16.476Z,2.10
2018-01-12T04:37:44.134Z,2.10
2018-01-12T04:40:11.837Z,2.10
2018-01-12T04:42:40.303Z,2.10
2018-01-12T04:45:07.974Z,2.10
2018-01-12T04:47:35.649Z,2.10
2018-01-12T04:50:04.082Z,2.10
2018-01-12T04:52:31.742Z,2.10
2018-01-12T04:54:59.413Z,2.10
2018-01-12T04:57:27.486Z,2.10
2018-01-12T04:59:55.130Z,2.10
2018-01-12T05:02:22.825Z,2.10
2018-01-12T05:04:51.287Z,2.20
2018-01-12T05:07:18.947Z,2.10
2018-01-12T05:09:46.637Z,2.10
2018-01-12T05:12:15.098Z,2.10
2018-01-12T05:14:42.784Z,2.10
2018-01-12T05:17:10.513Z,2.10
2018-01-12T05:19:38.186Z,2.10
2018-01-12T05:22:05.827Z,2.00
2018-01-12T05:24:33.887Z,2.00
2018-01-12T05:27:01.560Z,2.00
2018-01-12T05:29:29.382Z,2.00
2018-01-12T05:31:57.083Z,2.00
2018-01-12T05:34:24.762Z,2.10
2018-01-12T05:36:52.411Z,2.10
2018-01-12T05:39:20.130Z,2.10
2018-01-12T05:41:47.820Z,2.10
2018-01-12T05:44:15.467Z,2.10
2018-01-12T05:46:43.141Z,2.10
2018-01-12T05:49:10.814Z,2.00
2018-01-12T05:51:38.459Z,2.00
2018-01-12T05:54:06.129Z,2.10
2018-01-12T05:56:33.805Z,2.10
2018-01-12T05:59:01.459Z,2.10
2018-01-12T06:01:41.069Z,2.10
2018-01-12T06:04:20.489Z,2.10
2018-01-12T06:06:48.180Z,2.10
2018-01-12T06:09:15.851Z,2.00
2018-01-12T06:11:43.497Z,2.10
2018-01-12T06:14:11.205Z,2.10
2018-01-12T06:16:38.907Z,2.10
2018-01-12T06:19:06.563Z,2.00
2018-01-12T06:21:34.273Z,2.10
2018-01-12T06:24:02.769Z,2.10
2018-01-12T06:26:30.475Z,2.10
2018-01-12T06:28:58.141Z,2.10
2018-01-12T06:31:25.832Z,2.10
2018-01-12T06:33:54.261Z,2.10
2018-01-12T06:36:21.964Z,2.00
2018-01-12T06:38:49.658Z,2.00
2018-01-12T06:41:17.295Z,2.10
2018-01-12T06:43:45.756Z,2.10
2018-01-12T06:46:13.488Z,2.00
2018-01-12T06:48:41.135Z,2.10
2018-01-12T06:51:08.905Z,2.00
2018-01-12T06:53:36.618Z,2.10
2018-01-12T06:56:05.035Z,2.00
2018-01-12T06:58:32.715Z,2.00
2018-01-12T07:01:00.423Z,2.00
2018-01-12T07:03:28.838Z,2.00
2018-01-12T07:05:56.515Z,2.00
2018-01-12T07:08:24.221Z,2.00
2018-01-12T07:10:52.632Z,1.90
2018-01-12T07:13:20.302Z,1.90
2018-01-12T07:15:47.998Z,1.90
2018-01-12T07:18:15.650Z,1.90
2018-01-12T07:20:55.125Z,1.90
2018-01-12T07:23:35.520Z,2.00
2018-01-12T07:26:03.213Z,2.00
2018-01-12T07:28:30.924Z,2.00
2018-01-12T07:30:58.561Z,2.00
2018-01-12T07:33:27.022Z,2.00
2018-01-12T07:35:54.703Z,2.00
2018-01-12T07:38:23.129Z,2.00
2018-01-12T07:40:50.809Z,2.00
2018-01-12T07:43:18.490Z,2.10
2018-01-12T07:45:46.136Z,2.10
2018-01-12T07:48:13.829Z,2.10
2018-01-12T07:50:42.276Z,2.10
2018-01-12T07:53:15.559Z,2.10
2018-01-12T07:55:43.235Z,2.10
2018-01-12T07:58:10.872Z,2.10
2018-01-12T08:00:44.061Z,2.10
2018-01-12T08:03:11.744Z,2.10
2018-01-12T08:05:39.402Z,2.10
2018-01-12T08:08:07.075Z,2.20
2018-01-12T08:10:35.549Z,2.20
2018-01-12T08:13:03.210Z,2.20
2018-01-12T08:15:30.932Z,2.20
2018-01-12T08:17:58.613Z,2.20
2018-01-12T08:20:26.261Z,2.20
2018-01-12T08:22:54.582Z,2.20
2018-01-12T08:25:23.053Z,2.30
2018-01-12T08:27:51.485Z,2.30
2018-01-12T08:30:19.177Z,2.30
2018-01-12T08:32:46.857Z,2.30
2018-01-12T08:35:15.278Z,2.40
2018-01-12T08:37:42.954Z,2.30
2018-01-12T08:40:10.627Z,2.40
2018-01-12T08:42:38.300Z,2.50
2018-01-12T08:45:05.980Z,2.50
2018-01-12T08:47:34.598Z,2.60
2018-01-12T08:50:02.261Z,2.60
2018-01-12T08:52:29.938Z,2.60
2018-01-12T08:54:57.615Z,2.70
2018-01-12T08:57:25.263Z,2.70
2018-01-12T08:59:53.794Z,2.80
2018-01-12T09:02:22.285Z,2.80
2018-01-12T09:04:49.920Z,2.70
2018-01-12T09:07:18.370Z,2.70
2018-01-12T09:09:46.081Z,2.70
2018-01-12T09:12:13.734Z,2.60
2018-01-12T09:14:48.979Z,2.60
2018-01-12T09:17:28.503Z,2.60
2018-01-12T09:20:08.937Z,2.70
2018-01-12T09:22:45.452Z,2.70
2018-01-12T09:25:25.898Z,2.80
2018-01-12T09:27:54.352Z,2.70
2018-01-12T09:30:21.985Z,2.70
2018-01-12T09:32:49.747Z,2.80
2018-01-12T09:35:17.416Z,2.80
2018-01-12T09:37:45.075Z,2.80
2018-01-12T09:40:21.464Z,2.80
2018-01-12T09:42:49.948Z,2.80
2018-01-12T09:45:18.348Z,2.80
2018-01-12T09:47:57.822Z,2.80
2018-01-12T09:50:25.507Z,2.90
2018-01-12T09:52:53.153Z,3.00
2018-01-12T09:55:20.870Z,3.10
2018-01-12T09:57:48.601Z,3.20
2018-01-12T10:03:15.817Z,3.40
2018-01-12T10:05:43.508Z,3.40
2018-01-12T10:08:16.988Z,3.40
2018-01-12T10:10:44.663Z,3.30
2018-01-12T10:13:12.349Z,3.30
2018-01-12T10:15:39.986Z,3.30
2018-01-12T10:21:06.394Z,3.30
2018-01-12T10:23:34.080Z,3.30
2018-01-12T10:26:01.765Z,3.40
2018-01-12T10:28:29.500Z,3.40
2018-01-12T10:30:59.011Z,3.40
2018-01-12T10:36:39.789Z,3.30
2018-01-12T10:39:22.285Z,3.40
2018-01-12T10:42:01.643Z,3.30
2018-01-12T10:44:29.320Z,3.30
2018-01-12T10:47:14.818Z,3.30
2018-01-12T10:50:17.742Z,3.20
2018-01-12T10:52:47.480Z,3.20
2018-01-12T10:55:15.214Z,3.30
2018-01-12T10:57:42.912Z,3.30
2018-01-12T11:00:22.625Z,3.30
2018-01-12T11:02:50.329Z,3.40
2018-01-12T11:05:17.973Z,3.40
2018-01-12T11:07:45.656Z,3.50
2018-01-12T11:10:14.124Z,3.60
2018-01-12T11:12:41.768Z,3.60
2018-01-12T11:15:09.440Z,3.60
2018-01-12T11:17:37.133Z,3.70
2018-01-12T11:20:04.818Z,3.80
2018-01-12T11:22:32.552Z,3.80
2018-01-12T11:25:00.953Z,4.10
2018-01-12T11:27:28.574Z,4.10
2018-01-12T11:29:57.036Z,4.00
2018-01-12T11:32:24.701Z,4.00
2018-01-12T11:34:52.331Z,4.00
2018-01-12T11:37:20.009Z,3.90
2018-01-12T11:39:47.677Z,3.80
2018-01-12T11:42:15.360Z,3.80
2018-01-12T11:44:43.824Z,4.00
2018-01-12T11:47:11.503Z,4.00
2018-01-12T11:49:39.912Z,4.20
2018-01-12T11:52:07.589Z,4.20
2018-01-12T11:54:36.004Z,4.40
2018-01-12T11:57:03.666Z,4.50
2018-01-12T11:59:31.347Z,4.50
2018-01-12T12:01:59.813Z,4.50
2018-01-12T12:04:28.216Z,4.50
2018-01-12T12:06:55.884Z,4.50
2018-01-12T12:09:23.599Z,4.40
2018-01-12T12:11:51.243Z,4.50
2018-01-12T12:14:18.911Z,4.50
2018-01-12T12:16:46.584Z,4.40
2018-01-12T12:19:14.231Z,4.40
2018-01-12T12:21:41.929Z,4.50
2018-01-12T12:24:09.597Z,4.40
2018-01-12T12:26:37.259Z,4.30
2018-01-12T12:29:04.961Z,4.30
2018-01-12T12:31:32.626Z,4.50
2018-01-12T12:34:00.281Z,4.50
2018-01-12T12:36:27.944Z,4.50
2018-01-12T12:38:55.601Z,4.50
2018-01-12T12:41:23.330Z,4.50
2018-01-12T12:43:51.041Z,4.60
2018-01-12T12:46:18.724Z,4.50
2018-01-12T12:48:47.132Z,4.30
2018-01-12T12:51:14.787Z,4.30
2018-01-12T12:53:42.460Z,4.20
2018-01-12T12:56:10.093Z,4.10
2018-01-12T12:58:37.782Z,4.10
2018-01-12T13:01:05.457Z,4.10
2018-01-12T13:03:33.112Z,4.10
2018-01-12T13:06:00.823Z,4.10
2018-01-12T13:08:29.268Z,4.00
2018-01-12T13:10:56.931Z,4.00
2018-01-12T13:13:24.612Z,4.00
2018-01-12T13:15:52.326Z,4.00
2018-01-12T13:18:19.972Z,4.10
2018-01-12T13:20:47.649Z,4.00
2018-01-12T13:23:15.356Z,4.00
2018-01-12T13:25:43.787Z,4.10
2018-01-12T13:28:11.477Z,4.10
2018-01-12T13:30:39.159Z,4.20
2018-01-12T13:33:07.589Z,4.10
2018-01-12T13:35:35.260Z,4.10
2018-01-12T13:38:02.998Z,4.20
2018-01-12T13:40:30.640Z,4.10
2018-01-12T13:42:58.334Z,4.00
2018-01-12T13:45:26.019Z,4.00
2018-01-12T13:47:53.769Z,3.80
2018-01-12T13:50:21.439Z,3.80
2018-01-12T13:52:49.112Z,3.70
2018-01-12T13:55:16.774Z,3.70
2018-01-12T13:57:44.451Z,3.70
2018-01-12T14:00:12.143Z,3.60
2018-01-12T14:02:39.801Z,3.70
2018-01-12T14:05:07.472Z,3.60
2018-01-12T14:07:35.155Z,3.50
2018-01-12T14:10:02.808Z,3.50
2018-01-12T14:12:30.512Z,3.60
2018-01-12T14:14:58.961Z,3.50
2018-01-12T14:17:26.604Z,3.50
2018-01-12T14:19:54.336Z,3.50
2018-01-12T14:22:22.000Z,3.40
2018-01-12T14:24:49.715Z,3.40
2018-01-12T14:27:17.416Z,3.40
2018-01-12T14:29:45.102Z,3.30
2018-01-12T14:32:12.747Z,3.30
2018-01-12T14:34:40.416Z,3.30
2018-01-12T14:37:08.102Z,3.30
2018-01-12T14:39:35.770Z,3.30
2018-01-12T14:42:03.463Z,3.20
2018-01-12T14:44:31.920Z,3.20
2018-01-12T14:46:59.553Z,3.20
2018-01-12T14:49:27.275Z,3.20
2018-01-12T14:51:54.963Z,3.20
2018-01-12T14:54:22.597Z,3.20
2018-01-12T14:56:50.279Z,3.20
2018-01-12T14:59:17.993Z,3.10
2018-01-12T15:01:46.435Z,3.10
2018-01-12T15:04:14.111Z,3.10
2018-01-12T15:06:41.779Z,3.20
2018-01-12T15:09:09.428Z,3.20
2018-01-12T15:11:37.141Z,3.20
2018-01-12T15:14:04.832Z,3.10
2018-01-12T15:16:33.241Z,3.10
2018-01-12T15:19:00.939Z,3.10
2018-01-12T15:21:28.625Z,3.00
2018-01-12T15:23:56.269Z,3.00
2018-01-12T15:26:23.963Z,3.00
2018-01-12T15:28:51.672Z,3.00
2018-01-12T15:31:20.124Z,3.10
2018-01-12T15:33:47.876Z,3.10
2018-01-12T15:36:15.585Z,3.00
2018-01-12T15:38:43.362Z,3.10
2018-01-12T15:41:11.099Z,3.20
2018-01-12T15:43:39.556Z,3.10
2018-01-12T15:46:07.195Z,3.10
2018-01-12T15:48:34.942Z,3.10
2018-01-12T15:51:02.610Z,3.10
2018-01-12T15:53:30.247Z,3.10
2018-01-12T15:55:57.982Z,3.10
2018-01-12T15:58:25.666Z,3.10
2018-01-12T16:00:53.309Z,3.10
2018-01-12T16:03:21.031Z,3.10
2018-01-12T16:05:48.718Z,3.10
2018-01-12T16:08:17.135Z,3.20
2018-01-12T16:10:44.796Z,3.20
2018-01-12T16:13:12.449Z,3.20
2018-01-12T16:15:40.125Z,3.20
2018-01-12T16:18:07.806Z,3.20
2018-01-12T16:20:35.489Z,3.10
2018-01-12T16:23:03.941Z,3.10
2018-01-12T16:25:31.611Z,3.10
2018-01-12T16:27:59.295Z,3.20
2018-01-12T16:30:26.934Z,3.20
2018-01-12T16:32:54.602Z,3.20
2018-01-12T16:35:22.524Z,3.10
2018-01-12T16:37:50.157Z,3.20
2018-01-12T16:40:17.823Z,3.10
2018-01-12T16:42:45.496Z,3.10
2018-01-12T16:45:13.142Z,3.10
2018-01-12T16:47:40.817Z,3.00
2018-01-12T16:50:08.479Z,3.10
2018-01-12T16:52:36.190Z,3.10
2018-01-12T16:55:03.883Z,3.10
2018-01-12T16:57:31.545Z,3.10
2018-01-12T16:59:59.196Z,3.10
2018-01-12T17:02:27.931Z,3.00
2018-01-12T17:04:57.236Z,3.00
2018-01-12T17:07:25.042Z,3.00
2018-01-12T17:09:53.622Z,3.00
2018-01-12T17:12:22.073Z,3.00
2018-01-12T17:14:49.729Z,3.00
2018-01-12T17:17:17.406Z,2.90
2018-01-12T17:19:45.080Z,3.00
2018-01-12T17:22:13.484Z,3.00
2018-01-12T17:24:41.211Z,3.00
2018-01-12T17:27:08.890Z,3.00
2018-01-12T17:29:36.540Z,3.00
2018-01-12T17:32:04.971Z,3.00
2018-01-12T17:34:32.636Z,3.00
2018-01-12T17:37:00.277Z,3.00
2018-01-12T17:39:27.947Z,3.00
2018-01-12T17:41:55.637Z,3.00
2018-01-12T17:44:23.288Z,3.00
2018-01-12T17:46:50.970Z,3.10
2018-01-12T17:49:19.412Z,3.00
2018-01-12T17:51:47.053Z,3.00
2018-01-12T17:54:14.734Z,3.00
2018-01-12T17:56:42.409Z,3.00
2018-01-12T17:59:10.065Z,3.00
2018-01-12T18:01:37.778Z,3.00
2018-01-12T18:04:05.468Z,3.00
2018-01-12T18:06:33.121Z,3.00
2018-01-12T18:09:00.798Z,2.90
2018-01-12T18:11:28.477Z,3.00
2018-01-12T18:13:56.116Z,3.00
2018-01-12T18:16:23.768Z,3.00
2018-01-12T18:18:51.436Z,2.90
2018-01-12T18:21:19.087Z,2.90
2018-01-12T18:23:46.764Z,2.90
2018-01-12T18:26:14.448Z,2.90
2018-01-12T18:28:42.861Z,3.00
2018-01-12T18:31:10.529Z,3.00
2018-01-12T18:33:38.200Z,3.00
2018-01-12T18:36:05.841Z,3.00
2018-01-12T18:38:33.517Z,3.00
2018-01-12T18:41:01.186Z,3.00
2018-01-12T18:43:28.820Z,3.00
2018-01-12T18:45:56.505Z,2.90
2018-01-12T18:48:24.184Z,2.90
2018-01-12T18:50:51.808Z,2.80
2018-01-12T18:53:19.470Z,2.90
2018-01-12T18:55:47.181Z,2.90
2018-01-12T18:58:14.856Z,2.90
2018-01-12T19:00:43.308Z,3.00
2018-01-12T19:03:10.989Z,3.00
2018-01-12T19:05:38.624Z,2.90
2018-01-12T19:08:06.295Z,2.90
2018-01-12T19:10:33.978Z,2.90
2018-01-12T19:13:02.395Z,2.80
2018-01-12T19:15:30.088Z,2.80
2018-01-12T19:17:57.763Z,2.90
2018-01-12T19:20:25.413Z,2.80
2018-01-12T19:22:53.084Z,2.80
2018-01-12T19:25:20.747Z,2.90
2018-01-12T19:27:48.391Z,2.90
2018-01-12T19:30:16.069Z,2.90
2018-01-12T19:32:43.746Z,2.80
2018-01-12T19:35:12.164Z,2.80
2018-01-12T19:37:39.832Z,2.80
2018-01-12T19:40:07.503Z,2.70
2018-01-12T19:42:35.169Z,2.70
2018-01-12T19:45:02.872Z,2.70
2018-01-12T19:47:31.322Z,2.60
2018-01-12T19:49:58.982Z,2.60
2018-01-12T19:52:26.659Z,2.70
2018-01-12T19:54:54.324Z,2.60
2018-01-12T19:57:22.753Z,2.60
2018-01-12T19:59:50.444Z,2.60
2018-01-12T20:02:18.115Z,2.60
2018-01-12T20:04:46.529Z,2.60
2018-01-12T20:07:14.209Z,2.50
2018-01-12T20:09:41.877Z,2.60
2018-01-12T20:12:09.515Z,2.70
2018-01-12T20:14:37.950Z,2.70
2018-01-12T20:17:06.392Z,2.70
2018-01-12T20:19:34.032Z,2.60
2018-01-12T20:22:01.709Z,2.60
2018-01-12T20:24:29.399Z,2.60
2018-01-12T20:26:57.049Z,2.50
2018-01-12T20:29:24.728Z,2.40
2018-01-12T20:31:53.236Z,2.30
2018-01-12T20:34:20.861Z,2.30
2018-01-12T20:36:48.555Z,2.40
2018-01-12T20:39:16.265Z,2.40
2018-01-12T20:41:43.918Z,2.50
2018-01-12T20:44:11.572Z,2.50
2018-01-12T20:46:39.245Z,2.50
2018-01-12T20:49:06.886Z,2.60
2018-01-12T20:51:34.567Z,2.60
2018-01-12T20:54:02.246Z,2.60
2018-01-12T20:56:29.924Z,2.60
2018-01-12T20:58:58.357Z,2.60
2018-01-12T21:01:26.023Z,2.60
2018-01-12T21:03:53.670Z,2.60
2018-01-12T21:06:21.343Z,2.60
2018-01-12T21:08:49.002Z,2.60
2018-01-12T21:11:16.851Z,2.60
2018-01-12T21:13:44.550Z,2.70
2018-01-12T21:16:12.236Z,2.60
2018-01-12T21:18:40.658Z,2.70
2018-01-12T21:21:08.378Z,2.60
2018-01-12T21:23:36.064Z,2.70
2018-01-12T21:26:03.707Z,2.70
2018-01-12T21:28:31.406Z,2.70
2018-01-12T21:30:59.152Z,2.70
2018-01-12T21:33:27.014Z,2.70
2018-01-12T21:35:54.823Z,2.70
2018-01-12T21:38:22.700Z,2.70
2018-01-12T21:40:50.452Z,2.80
2018-01-12T21:43:19.009Z,2.80
2018-01-12T21:45:47.754Z,2.80
2018-01-12T21:48:15.748Z,2.70
2018-01-12T21:50:43.675Z,2.70
2018-01-12T21:53:11.585Z,2.70
2018-01-12T21:55:39.394Z,2.70
2018-01-12T21:58:08.073Z,2.80
2018-01-12T22:00:36.627Z,2.80
2018-01-12T22:03:04.356Z,2.80
2018-01-12T22:05:32.099Z,2.80
2018-01-12T22:07:59.868Z,2.70
2018-01-12T22:10:27.589Z,2.70
2018-01-12T22:12:55.319Z,2.70
2018-01-12T22:15:23.129Z,2.70
2018-01-12T22:17:51.608Z,2.70
2018-01-12T22:20:20.044Z,2.70
2018-01-12T22:22:47.708Z,2.70
2018-01-12T22:25:15.336Z,2.70
2018-01-12T22:27:43.017Z,2.60
2018-01-12T22:30:10.692Z,2.60
2018-01-12T22:32:38.355Z,2.60
2018-01-12T22:35:06.037Z,2.60
2018-01-12T22:37:34.479Z,2.70
2018-01-12T22:40:02.132Z,2.60
2018-01-12T22:42:29.860Z,2.60
2018-01-12T22:44:58.304Z,2.60
2018-01-12T22:47:25.976Z,2.60
2018-01-12T22:49:53.661Z,2.60
2018-01-12T22:52:21.345Z,2.60
2018-01-12T22:54:49.028Z,2.60
2018-01-12T22:57:16.707Z,2.60
2018-01-12T22:59:44.388Z,2.70
2018-01-12T23:02:12.835Z,2.60
2018-01-12T23:04:40.499Z,2.60
2018-01-12T23:07:08.184Z,2.60
2018-01-12T23:09:35.823Z,2.60
2018-01-12T23:12:03.491Z,2.60
2018-01-12T23:14:31.173Z,2.60
2018-01-12T23:16:59.584Z,2.60
2018-01-12T23:19:27.277Z,2.60
2018-01-12T23:21:55.298Z,2.60
2018-01-12T23:24:23.565Z,2.60
2018-01-12T23:26:52.020Z,2.60
2018-01-12T23:29:19.689Z,2.70
2018-01-12T23:31:48.120Z,2.70
2018-01-12T23:34:15.796Z,2.70
2018-01-12T23:36:43.479Z,2.70
2018-01-12T23:39:11.160Z,2.70
2018-01-12T23:41:38.868Z,2.70
2018-01-12T23:44:06.528Z,2.60
2018-01-12T23:46:34.156Z,2.70
2018-01-12T23:49:01.824Z,2.60
2018-01-12T23:51:29.535Z,2.70
2018-01-12T23:53:57.184Z,2.70
2018-01-12T23:56:24.879Z,2.70
2018-01-12T23:58:53.388Z,2.70
